Elvira, Iowa
Current Conditions -  °F | °C
As of 11:35 PM on Wednesday 26 Nov 2014 (Local Time) from KCWI Reporting Station
Scattered Clouds Scattered Clouds  
Wind Chill:   Ceiling: Unl
Heat Index: 18°   Visibility: 5mi
Dew Point: 12°   Wind: 7mph
Humidity: 79%   Direction: 330°NNW
Pressure: 30.28"   Gusts: NA
Location:  41.8802°N, 90.2992°W
Report Text: KCWI 270535Z AUTO 33006KT 5SM SCT060 M08/M11 A3028 RMK AO1
Loading
Personal Weather Stations






























Interactive Weather Map New forecast layout! Learn more

10-Day Weather Forecast

Advertisements
Track Severe Weather on mobile